sensor_id;sensor_type;location;lat;lon;timestamp;temperature;humidity
43862;DHT22;29510;52.140;5.034;2023-04-03T00:07:04;5.10;1.00
43862;DHT22;29510;52.140;5.034;2023-04-03T00:17:05;5.10;1.00
43862;DHT22;29510;52.140;5.034;2023-04-03T00:27:06;5.00;1.00
43862;DHT22;29510;52.140;5.034;2023-04-03T00:37:07;4.90;1.00
43862;DHT22;29510;52.140;5.034;2023-04-03T00:47:11;4.80;1.00
43862;DHT22;29510;52.140;5.034;2023-04-03T00:57:15;4.80;1.00
43862;DHT22;29510;52.140;5.034;2023-04-03T01:07:18;4.80;1.00
43862;DHT22;29510;52.140;5.034;2023-04-03T01:17:48;4.60;1.00
43862;DHT22;29510;52.140;5.034;2023-04-03T01:27:49;4.60;1.00
43862;DHT22;29510;52.140;5.034;2023-04-03T01:37:50;4.50;1.00
43862;DHT22;29510;52.140;5.034;2023-04-03T01:47:52;4.30;1.00
43862;DHT22;29510;52.140;5.034;2023-04-03T01:57:53;4.20;1.00
43862;DHT22;29510;52.140;5.034;2023-04-03T02:07:54;4.10;1.00
43862;DHT22;29510;52.140;5.034;2023-04-03T02:17:55;4.10;1.00
43862;DHT22;29510;52.140;5.034;2023-04-03T02:27:56;3.90;1.00
43862;DHT22;29510;52.140;5.034;2023-04-03T02:37:57;3.90;1.00
43862;DHT22;29510;52.140;5.034;2023-04-03T02:48:00;3.70;1.00
43862;DHT22;29510;52.140;5.034;2023-04-03T02:58:01;3.80;1.00
43862;DHT22;29510;52.140;5.034;2023-04-03T03:08:02;3.70;1.00
43862;DHT22;29510;52.140;5.034;2023-04-03T03:18:03;3.70;1.00
43862;DHT22;29510;52.140;5.034;2023-04-03T03:28:04;3.60;1.00
43862;DHT22;29510;52.140;5.034;2023-04-03T03:38:06;3.50;1.00
43862;DHT22;29510;52.140;5.034;2023-04-03T03:48:07;3.30;1.00
43862;DHT22;29510;52.140;5.034;2023-04-03T03:58:08;3.30;1.00
43862;DHT22;29510;52.140;5.034;2023-04-03T04:08:09;3.20;1.00
43862;DHT22;29510;52.140;5.034;2023-04-03T04:18:10;3.20;1.00
43862;DHT22;29510;52.140;5.034;2023-04-03T04:28:12;3.10;1.00
43862;DHT22;29510;52.140;5.034;2023-04-03T04:38:13;3.00;1.00
43862;DHT22;29510;52.140;5.034;2023-04-03T04:48:14;3.10;1.00
43862;DHT22;29510;52.140;5.034;2023-04-03T04:58:15;3.00;1.00
43862;DHT22;29510;52.140;5.034;2023-04-03T05:08:16;2.80;1.00
43862;DHT22;29510;52.140;5.034;2023-04-03T05:18:17;2.80;1.00
43862;DHT22;29510;52.140;5.034;2023-04-03T05:28:18;2.80;1.00
43862;DHT22;29510;52.140;5.034;2023-04-03T05:38:20;2.70;1.00
43862;DHT22;29510;52.140;5.034;2023-04-03T05:48:21;2.80;1.00
43862;DHT22;29510;52.140;5.034;2023-04-03T05:58:22;2.80;1.00
43862;DHT22;29510;52.140;5.034;2023-04-03T06:08:23;2.90;1.00
43862;DHT22;29510;52.140;5.034;2023-04-03T06:18:24;3.00;1.00
43862;DHT22;29510;52.140;5.034;2023-04-03T06:28:25;3.00;1.00
43862;DHT22;29510;52.140;5.034;2023-04-03T06:38:26;3.20;1.00
43862;DHT22;29510;52.140;5.034;2023-04-03T06:48:27;3.20;1.00
43862;DHT22;29510;52.140;5.034;2023-04-03T06:58:28;3.40;1.00
43862;DHT22;29510;52.140;5.034;2023-04-03T07:08:30;3.60;1.00
43862;DHT22;29510;52.140;5.034;2023-04-03T07:18:31;3.80;1.00
43862;DHT22;29510;52.140;5.034;2023-04-03T07:28:33;4.10;1.00
43862;DHT22;29510;52.140;5.034;2023-04-03T07:38:35;4.40;1.00
43862;DHT22;29510;52.140;5.034;2023-04-03T07:48:36;4.60;1.00
43862;DHT22;29510;52.140;5.034;2023-04-03T07:58:37;5.10;1.00
43862;DHT22;29510;52.140;5.034;2023-04-03T08:08:39;5.40;1.00
43862;DHT22;29510;52.140;5.034;2023-04-03T08:18:40;5.80;1.00
43862;DHT22;29510;52.140;5.034;2023-04-03T08:28:42;6.10;1.00
43862;DHT22;29510;52.140;5.034;2023-04-03T08:38:43;6.50;1.00
43862;DHT22;29510;52.140;5.034;2023-04-03T08:48:44;6.80;1.00
43862;DHT22;29510;52.140;5.034;2023-04-03T08:58:52;7.10;1.00
43862;DHT22;29510;52.140;5.034;2023-04-03T09:09:30;7.40;1.00
43862;DHT22;29510;52.140;5.034;2023-04-03T09:20:09;8.00;1.00
43862;DHT22;29510;52.140;5.034;2023-04-03T09:30:17;8.30;1.00
43862;DHT22;29510;52.140;5.034;2023-04-03T09:50:26;9.10;1.00
43862;DHT22;29510;52.140;5.034;2023-04-03T10:00:36;9.30;1.00
43862;DHT22;29510;52.140;5.034;2023-04-03T10:10:38;9.50;1.00
43862;DHT22;29510;52.140;5.034;2023-04-03T10:20:44;9.70;1.00
43862;DHT22;29510;52.140;5.034;2023-04-03T10:41:17;10.00;1.00
43862;DHT22;29510;52.140;5.034;2023-04-03T10:51:38;10.00;1.00
43862;DHT22;29510;52.140;5.034;2023-04-03T11:01:44;10.50;1.00
43862;DHT22;29510;52.140;5.034;2023-04-03T11:11:47;10.60;1.00
43862;DHT22;29510;52.140;5.034;2023-04-03T11:21:54;10.90;1.00
43862;DHT22;29510;52.140;5.034;2023-04-03T11:42:37;12.00;1.00
43862;DHT22;29510;52.140;5.034;2023-04-03T12:02:41;12.60;1.00
43862;DHT22;29510;52.140;5.034;2023-04-03T12:12:42;13.10;1.00
43862;DHT22;29510;52.140;5.034;2023-04-03T12:23:27;12.70;1.00
43862;DHT22;29510;52.140;5.034;2023-04-03T12:54:03;13.60;1.00
43862;DHT22;29510;52.140;5.034;2023-04-03T13:04:05;13.50;1.00
43862;DHT22;29510;52.140;5.034;2023-04-03T13:14:19;13.30;1.00
43862;DHT22;29510;52.140;5.034;2023-04-03T13:24:21;14.30;1.00
43862;DHT22;29510;52.140;5.034;2023-04-03T13:34:23;14.90;1.00
43862;DHT22;29510;52.140;5.034;2023-04-03T13:44:34;15.20;1.00
43862;DHT22;29510;52.140;5.034;2023-04-03T13:54:37;14.90;1.00
43862;DHT22;29510;52.140;5.034;2023-04-03T14:14:46;15.60;1.00
43862;DHT22;29510;52.140;5.034;2023-04-03T14:24:48;14.80;1.00
43862;DHT22;29510;52.140;5.034;2023-04-03T14:34:51;13.70;1.00
43862;DHT22;29510;52.140;5.034;2023-04-03T14:44:52;13.50;1.00
43862;DHT22;29510;52.140;5.034;2023-04-03T14:54:54;12.90;1.00
43862;DHT22;29510;52.140;5.034;2023-04-03T15:04:56;12.70;1.00
43862;DHT22;29510;52.140;5.034;2023-04-03T15:14:57;12.20;1.00
43862;DHT22;29510;52.140;5.034;2023-04-03T15:24:58;12.10;1.00
43862;DHT22;29510;52.140;5.034;2023-04-03T15:34:59;11.90;1.00
43862;DHT22;29510;52.140;5.034;2023-04-03T15:45:00;11.70;1.00
43862;DHT22;29510;52.140;5.034;2023-04-03T15:55:02;11.50;1.00
43862;DHT22;29510;52.140;5.034;2023-04-03T16:05:04;11.30;1.00
43862;DHT22;29510;52.140;5.034;2023-04-03T16:15:06;11.00;1.00
43862;DHT22;29510;52.140;5.034;2023-04-03T16:25:09;10.90;1.00
43862;DHT22;29510;52.140;5.034;2023-04-03T16:35:10;10.70;1.00
43862;DHT22;29510;52.140;5.034;2023-04-03T16:45:12;10.50;1.00
43862;DHT22;29510;52.140;5.034;2023-04-03T16:55:13;10.30;1.00
43862;DHT22;29510;52.140;5.034;2023-04-03T17:05:14;10.20;1.00
43862;DHT22;29510;52.140;5.034;2023-04-03T17:15:15;9.90;1.00
43862;DHT22;29510;52.140;5.034;2023-04-03T17:25:16;9.80;1.00
43862;DHT22;29510;52.140;5.034;2023-04-03T17:35:17;9.50;1.00
43862;DHT22;29510;52.140;5.034;2023-04-03T17:45:18;9.40;1.00
43862;DHT22;29510;52.140;5.034;2023-04-03T17:55:20;9.30;1.00
43862;DHT22;29510;52.140;5.034;2023-04-03T18:05:21;9.10;1.00
43862;DHT22;29510;52.140;5.034;2023-04-03T18:15:25;9.00;1.00
43862;DHT22;29510;52.140;5.034;2023-04-03T18:25:26;8.70;1.00
43862;DHT22;29510;52.140;5.034;2023-04-03T18:35:27;8.50;1.00
43862;DHT22;29510;52.140;5.034;2023-04-03T18:45:29;8.30;1.00
43862;DHT22;29510;52.140;5.034;2023-04-03T18:55:30;8.20;1.00
43862;DHT22;29510;52.140;5.034;2023-04-03T19:05:32;8.00;1.00
43862;DHT22;29510;52.140;5.034;2023-04-03T19:15:33;7.80;1.00
43862;DHT22;29510;52.140;5.034;2023-04-03T19:25:34;7.60;1.00
43862;DHT22;29510;52.140;5.034;2023-04-03T19:35:39;7.50;1.00
43862;DHT22;29510;52.140;5.034;2023-04-03T19:45:40;7.30;1.00
43862;DHT22;29510;52.140;5.034;2023-04-03T19:55:41;7.20;1.00
43862;DHT22;29510;52.140;5.034;2023-04-03T20:05:45;7.00;1.00
43862;DHT22;29510;52.140;5.034;2023-04-03T20:15:46;6.90;1.00
43862;DHT22;29510;52.140;5.034;2023-04-03T20:25:48;6.70;1.00
43862;DHT22;29510;52.140;5.034;2023-04-03T20:35:49;6.40;1.00
43862;DHT22;29510;52.140;5.034;2023-04-03T20:45:51;6.30;1.00
43862;DHT22;29510;52.140;5.034;2023-04-03T20:55:55;6.10;1.00
43862;DHT22;29510;52.140;5.034;2023-04-03T21:26:02;5.50;1.00
43862;DHT22;29510;52.140;5.034;2023-04-03T21:36:03;5.40;1.00
43862;DHT22;29510;52.140;5.034;2023-04-03T21:46:04;5.40;1.00
43862;DHT22;29510;52.140;5.034;2023-04-03T21:56:05;5.20;1.00
43862;DHT22;29510;52.140;5.034;2023-04-03T22:06:12;5.10;1.00
43862;DHT22;29510;52.140;5.034;2023-04-03T22:16:13;5.10;1.00
43862;DHT22;29510;52.140;5.034;2023-04-03T22:26:14;4.90;1.00
43862;DHT22;29510;52.140;5.034;2023-04-03T22:36:15;4.80;1.00
43862;DHT22;29510;52.140;5.034;2023-04-03T22:46:16;4.70;1.00
43862;DHT22;29510;52.140;5.034;2023-04-03T22:56:19;4.60;1.00
43862;DHT22;29510;52.140;5.034;2023-04-03T23:06:21;4.50;1.00
43862;DHT22;29510;52.140;5.034;2023-04-03T23:16:22;4.30;1.00
43862;DHT22;29510;52.140;5.034;2023-04-03T23:26:23;4.20;1.00
43862;DHT22;29510;52.140;5.034;2023-04-03T23:36:25;4.00;1.00
43862;DHT22;29510;52.140;5.034;2023-04-03T23:46:26;4.00;1.00
43862;DHT22;29510;52.140;5.034;2023-04-03T23:56:27;4.00;1.00
